Flight EZE15W

  • Submitted By: Dave Hardy
  • Departure Airport: Aberdeen / Dyce (EGPD)
  • Arrival Airport: Humberside International (EGNJ)
  • Aircraft: JS41 (G-MAJA)
  • Flight Time: 1.08
  • Date Submitted: 05/16/2009
  • Status: Accepted
Flight Details
Gross Revenue:
(18 load / £ 0.00 per unit
£ 0.00
Fuel Cost:
(1507 fuel used @ 0 / unit)
£ 0.00

Flight Details

  • VATAWARE Link: -

Additional Log Information:

View Log

[2009/05/16 14:32:00]
Flight IATA:EZE15W
Pilot Number:EZE0001
Company ICAO:EZE
Aircraft Type:JS41
PAX:18
Aircraft Registration:SB20
Departing Airport: EGPD
Destination Airport: EGNJ
Online: VATSIM
Route:ADN P18 GASKO Y250 UPTON L975 GOLES
Flight Level:19000
14:32 Zero fuel Weight: 17982 Lbs, Fuel Weight: 5813 Lbs
14:32 VATSIM:EGPD 161350Z 11011KT 6000 RA BKN003 09/08 Q1002 TEMPO BKN005
14:32 VATSIM:EGNJ 161350Z 21012KT 9999 FEW010 SCT025 14/10 Q1003
14:37 Parking Brakes off
14:37 Com1 Freq=122.95
14:41 VR= 119 Knots
14:41 V2= 137 Knots
14:41 Take-off
14:41 Take off Weight: 23754 Lbs
14:41 Wind: 000 @ 000 Knots Heading: 157
14:41 POS N57 11 41 W002 11 32
14:41 N11 38 N12 38
14:41 Gear Up: 140 Knots
14:41 Flaps: at 140 Knots
14:43 Flaps: at 166 Knots
14:50 TOC
14:50 Fuel Weight: 5383 Lb
14:56 Wind:270@025 Knots Heading: 172 Ground Speed: 326 KnotsAltitude 18996 ft
15:11 Wind:270@025 Knots Heading: 194 Ground Speed: 318 Knots Altitude 18999 ft
15:22 TOD
15:22 Fuel Weight: 4518 Lb
15:26 Wind:270@023 Knots Heading: 078 Ground Speed: 269 Knots Altitude 13612 ft
15:32 Flaps: at 213 Knots
15:34 Com1 Freq=124.95
15:34 Com1 Freq=124.92
15:34 Com1 Freq=124.90
15:34 Flaps: at 172 Knots
15:37 Gear Down: 140 Knots
15:39 Flaps: at 154 Knots
15:40 TouchDown:Rate -489 ft/min Speed: 124 Knots
15:40 VATSIM:EGNJ 161520Z 20013KT 9999 -SHRA FEW010 SCT025 14/10 Q1003
15:40 Land
15:40 Wind:000@000 Knots
15:40 Heading: 201
15:40 Flight Duration: 00:59
15:40 Landing Weight: 22310 Lbs
15:40 POS N53 34 26 W000 21 03
15:44 Parking brakes on
15:44 Block to Block Duration: 01:08
15:44 Final Fuel: 4305 Lbls
15:44 Spent Fuel: 1507 Lbls
15:44 Flight Length: 272 NM
15:44 TOD Land Length: 66 NM

Route Map